createdAt,value
2023-05-12T00:01:38.292Z,98768.75
2023-05-12T00:04:05.719Z,98773.39
2023-05-12T00:06:33.068Z,98773.75
2023-05-12T00:08:59.979Z,98771.61
2023-05-12T00:11:26.863Z,98769.05
2023-05-12T00:13:55.267Z,98775.83
2023-05-12T00:16:22.364Z,98771.40
2023-05-12T00:18:49.377Z,98772.82
2023-05-12T00:21:16.415Z,98772.83
2023-05-12T00:23:43.643Z,98771.02
2023-05-12T00:26:10.705Z,98770.75
2023-05-12T00:28:37.684Z,98770.23
2023-05-12T00:31:08.438Z,98771.67
2023-05-12T00:33:35.379Z,98771.22
2023-05-12T00:36:04.230Z,98775.17
2023-05-12T00:38:31.130Z,98775.60
2023-05-12T00:40:58.029Z,98779.29
2023-05-12T00:43:25.047Z,98779.52
2023-05-12T00:45:52.002Z,98780.27
2023-05-12T00:48:19.228Z,98783.41
2023-05-12T00:50:46.424Z,98783.33
2023-05-12T00:53:13.602Z,98787.74
2023-05-12T00:55:40.511Z,98793.89
2023-05-12T00:58:08.107Z,98793.63
2023-05-12T01:00:35.856Z,98797.79
2023-05-12T01:03:02.910Z,98797.11
2023-05-12T01:05:34.433Z,98796.25
2023-05-12T01:08:01.601Z,98796.45
2023-05-12T01:10:28.941Z,98799.52
2023-05-12T01:12:55.846Z,98801.38
2023-05-12T01:15:22.821Z,98798.44
2023-05-12T01:17:54.593Z,98801.24
2023-05-12T01:20:23.109Z,98801.88
2023-05-12T01:22:50.206Z,98797.64
2023-05-12T01:25:17.237Z,98801.73
2023-05-12T01:27:44.343Z,98803.66
2023-05-12T01:30:14.450Z,98809.30
2023-05-12T01:32:41.354Z,98812.19
2023-05-12T01:35:08.727Z,98809.98
2023-05-12T01:37:38.128Z,98812.33
2023-05-12T01:40:06.141Z,98811.52
2023-05-12T01:42:33.052Z,98806.98
2023-05-12T01:44:59.963Z,98806.59
2023-05-12T01:47:27.533Z,98806.55
2023-05-12T01:50:03.823Z,98806.48
2023-05-12T01:52:30.848Z,98803.96
2023-05-12T01:54:57.854Z,98802.77
2023-05-12T01:57:25.342Z,98797.02
2023-05-12T01:59:56.067Z,98802.26
2023-05-12T02:02:23.247Z,98801.98
2023-05-12T02:04:50.249Z,98800.83
2023-05-12T02:07:17.178Z,98796.20
2023-05-12T02:09:44.295Z,98799.39
2023-05-12T02:12:11.344Z,98795.80
2023-05-12T02:14:38.439Z,98798.02
2023-05-12T02:17:05.283Z,98803.39
2023-05-12T02:19:32.158Z,98804.52
2023-05-12T02:21:59.225Z,98802.74
2023-05-12T02:24:26.272Z,98804.70
2023-05-12T02:26:53.422Z,98807.16
2023-05-12T02:29:20.271Z,98806.55
2023-05-12T02:31:47.494Z,98809.02
2023-05-12T02:34:16.198Z,98812.02
2023-05-12T02:36:43.149Z,98816.90
2023-05-12T02:39:11.438Z,98817.09
2023-05-12T02:41:38.739Z,98811.26
2023-05-12T02:44:05.618Z,98815.13
2023-05-12T02:46:32.616Z,98816.65
2023-05-12T02:48:59.629Z,98816.63
2023-05-12T02:51:26.591Z,98816.86
2023-05-12T02:53:53.493Z,98816.58
2023-05-12T02:56:20.886Z,98820.25
2023-05-12T02:58:47.992Z,98820.94
2023-05-12T03:01:14.897Z,98821.48
2023-05-12T03:03:42.299Z,98821.69
2023-05-12T03:06:09.718Z,98820.86
2023-05-12T03:08:36.701Z,98827.88
2023-05-12T03:11:03.530Z,98829.91
2023-05-12T03:13:30.524Z,98829.60
2023-05-12T03:16:01.538Z,98829.45
2023-05-12T03:18:29.194Z,98832.13
2023-05-12T03:20:56.386Z,98828.77
2023-05-12T03:23:24.216Z,98827.38
2023-05-12T03:25:51.703Z,98828.80
2023-05-12T03:28:18.594Z,98832.92
2023-05-12T03:30:45.593Z,98828.15
2023-05-12T03:33:12.547Z,98832.73
2023-05-12T03:35:39.469Z,98836.20
2023-05-12T03:38:06.330Z,98835.85
2023-05-12T03:40:33.369Z,98838.04
2023-05-12T03:43:00.217Z,98842.57
2023-05-12T03:45:27.377Z,98842.73
2023-05-12T03:47:54.402Z,98843.02
2023-05-12T03:50:21.412Z,98846.72
2023-05-12T03:52:48.611Z,98849.97
2023-05-12T03:55:15.588Z,98853.23
2023-05-12T03:57:42.947Z,98851.23
2023-05-12T04:00:11.698Z,98856.96
2023-05-12T04:02:44.289Z,98859.08
2023-05-12T04:05:11.290Z,98861.05
2023-05-12T04:07:38.453Z,98866.34
2023-05-12T04:10:05.935Z,98869.01
2023-05-12T04:12:33.032Z,98872.82
2023-05-12T04:15:00.358Z,98874.77
2023-05-12T04:17:27.519Z,98875.30
2023-05-12T04:19:54.489Z,98877.15
2023-05-12T04:22:22.859Z,98875.13
2023-05-12T04:24:51.473Z,98880.96
2023-05-12T04:27:18.579Z,98884.23
2023-05-12T04:29:45.601Z,98883.79
2023-05-12T04:32:12.633Z,98886.07
2023-05-12T04:34:39.653Z,98883.19
2023-05-12T04:37:07.100Z,98881.91
2023-05-12T04:39:34.375Z,98884.10
2023-05-12T04:42:02.294Z,98881.09
2023-05-12T04:44:31.246Z,98886.94
2023-05-12T04:46:58.245Z,98883.20
2023-05-12T04:49:25.451Z,98889.41
2023-05-12T04:51:52.348Z,98894.61
2023-05-12T04:56:31.453Z,98892.30
2023-05-12T04:58:58.691Z,98894.10
2023-05-12T05:01:25.619Z,98894.09
2023-05-12T05:03:53.264Z,98895.88
2023-05-12T05:06:20.375Z,98895.98
2023-05-12T05:08:49.029Z,98900.15
2023-05-12T05:11:16.204Z,98899.58
2023-05-12T05:13:43.627Z,98903.80
2023-05-12T05:16:10.570Z,98905.68
2023-05-12T05:18:38.539Z,98903.21
2023-05-12T05:21:05.803Z,98903.41
2023-05-12T05:23:32.655Z,98904.41
2023-05-12T05:25:59.764Z,98908.13
2023-05-12T05:28:27.367Z,98915.13
2023-05-12T05:30:54.374Z,98911.73
2023-05-12T05:33:21.423Z,98914.80
2023-05-12T05:35:48.398Z,98917.93
2023-05-12T05:38:15.327Z,98921.53
2023-05-12T05:40:53.157Z,98923.02
2023-05-12T05:43:21.205Z,98924.36
2023-05-12T05:45:50.152Z,98923.09
2023-05-12T05:48:17.980Z,98921.52
2023-05-12T05:50:46.913Z,98926.23
2023-05-12T05:53:13.969Z,98923.70
2023-05-12T05:55:41.184Z,98924.95
2023-05-12T05:58:08.755Z,98927.58
2023-05-12T06:00:35.656Z,98928.24
2023-05-12T06:03:03.283Z,98929.13
2023-05-12T06:05:30.949Z,98928.91
2023-05-12T06:07:58.120Z,98933.52
2023-05-12T06:10:25.845Z,98931.00
2023-05-12T06:12:53.007Z,98930.70
2023-05-12T06:15:21.294Z,98936.91
2023-05-12T06:17:49.977Z,98940.89
2023-05-12T06:20:17.076Z,98942.36
2023-05-12T06:22:49.403Z,98942.48
2023-05-12T06:25:17.304Z,98939.02
2023-05-12T06:27:44.197Z,98943.58
2023-05-12T06:30:15.592Z,98943.85
2023-05-12T06:32:43.185Z,98940.30
2023-05-12T06:35:10.063Z,98943.20
2023-05-12T06:37:36.985Z,98939.14
2023-05-12T06:40:04.343Z,98936.44
2023-05-12T06:42:31.317Z,98936.44
2023-05-12T06:44:58.192Z,98939.08
2023-05-12T06:47:25.181Z,98938.80
2023-05-12T06:49:52.178Z,98937.70
2023-05-12T06:52:20.641Z,98939.27
2023-05-12T06:54:47.556Z,98936.23
2023-05-12T06:57:14.505Z,98931.59
2023-05-12T06:59:43.757Z,98928.71
2023-05-12T07:02:10.672Z,98929.89
2023-05-12T07:04:37.611Z,98929.20
2023-05-12T07:07:04.620Z,98931.14
2023-05-12T07:09:31.607Z,98931.98
2023-05-12T07:11:59.380Z,98932.66
2023-05-12T07:14:26.451Z,98932.66
2023-05-12T07:16:53.269Z,98934.90
2023-05-12T07:19:20.139Z,98935.14
2023-05-12T07:21:47.001Z,98934.30
2023-05-12T07:24:14.164Z,98937.77
2023-05-12T07:26:44.729Z,98936.05
2023-05-12T07:29:13.402Z,98937.19
2023-05-12T07:31:40.968Z,98938.79
2023-05-12T07:34:08.494Z,98937.08
2023-05-12T07:36:35.312Z,98936.64
2023-05-12T07:39:02.194Z,98938.20
2023-05-12T07:41:29.072Z,98937.38
2023-05-12T07:43:56.007Z,98934.76
2023-05-12T07:46:22.928Z,98934.73
2023-05-12T07:48:50.874Z,98932.46
2023-05-12T07:51:17.748Z,98935.48
2023-05-12T07:53:44.763Z,98928.62
2023-05-12T07:56:11.767Z,98931.47
2023-05-12T07:58:38.717Z,98930.83
2023-05-12T08:01:06.998Z,98931.67
2023-05-12T08:03:35.078Z,98928.42
2023-05-12T08:06:03.658Z,98927.57
2023-05-12T08:08:30.654Z,98923.80
2023-05-12T08:10:57.508Z,98928.98
2023-05-12T08:13:24.420Z,98928.36
2023-05-12T08:15:51.793Z,98924.87
2023-05-12T08:18:18.660Z,98925.75
2023-05-12T08:20:45.606Z,98923.77
2023-05-12T08:23:12.496Z,98919.81
2023-05-12T08:25:41.123Z,98915.22
2023-05-12T08:28:08.063Z,98918.81
2023-05-12T08:30:34.966Z,98917.79
2023-05-12T08:33:03.109Z,98917.19
2023-05-12T08:35:29.992Z,98912.35
2023-05-12T08:37:57.457Z,98915.78
2023-05-12T08:40:25.190Z,98909.97
2023-05-12T08:42:55.826Z,98906.96
2023-05-12T08:45:25.757Z,98903.29
2023-05-12T08:47:52.732Z,98909.69
2023-05-12T08:50:22.099Z,98907.60
2023-05-12T08:52:49.179Z,98908.42
2023-05-12T08:55:16.046Z,98904.00
2023-05-12T08:57:45.778Z,98906.12
2023-05-12T09:00:13.260Z,98907.52
2023-05-12T09:02:52.155Z,98910.99
2023-05-12T09:05:21.556Z,98904.50
2023-05-12T09:07:48.861Z,98904.35
2023-05-12T09:10:33.633Z,98897.77
2023-05-12T09:13:30.310Z,98897.49
2023-05-12T09:15:59.083Z,98898.86
2023-05-12T09:18:26.147Z,98899.48
2023-05-12T09:20:53.094Z,98900.89
2023-05-12T09:23:20.950Z,98902.92
2023-05-12T09:25:48.302Z,98899.50
2023-05-12T09:28:15.531Z,98897.71
2023-05-12T09:30:42.814Z,98896.08
2023-05-12T09:33:13.553Z,98890.62
2023-05-12T09:35:46.048Z,98891.92
2023-05-12T09:38:13.934Z,98890.08
2023-05-12T09:40:41.426Z,98893.11
2023-05-12T09:43:08.364Z,98897.13
2023-05-12T09:45:36.474Z,98884.84
2023-05-12T09:48:13.956Z,98890.33
2023-05-12T09:50:49.068Z,98892.76
2023-05-12T09:53:20.693Z,98899.63
2023-05-12T09:55:48.308Z,98900.38
2023-05-12T09:58:17.360Z,98893.79
2023-05-12T10:01:12.760Z,98893.48
2023-05-12T10:03:33.561Z,98894.92
2023-05-12T10:06:06.350Z,98887.63
2023-05-12T10:08:37.986Z,98893.05
2023-05-12T10:11:05.366Z,98895.16
2023-05-12T10:13:32.591Z,98889.20
2023-05-12T10:15:59.428Z,98895.09
2023-05-12T10:18:26.363Z,98895.23
2023-05-12T10:20:56.296Z,98900.30
2023-05-12T10:23:23.265Z,98900.35
2023-05-12T10:25:50.184Z,98901.84
2023-05-12T10:28:17.979Z,98896.81
2023-05-12T10:30:44.978Z,98897.83
2023-05-12T10:33:11.902Z,98897.20
2023-05-12T10:35:39.836Z,98892.00
2023-05-12T10:38:11.550Z,98892.61
2023-05-12T10:40:53.742Z,98894.26
2023-05-12T10:43:29.624Z,98887.16
2023-05-12T10:46:17.230Z,98888.55
2023-05-12T10:48:56.626Z,98885.51
2023-05-12T10:51:28.685Z,98886.52
2023-05-12T10:54:02.840Z,98880.52
2023-05-12T10:56:31.851Z,98880.23
2023-05-12T10:59:23.074Z,98881.59
2023-05-12T11:02:01.599Z,98880.99
2023-05-12T11:08:06.861Z,98881.55
2023-05-12T11:10:35.694Z,98880.02
2023-05-12T11:13:03.977Z,98881.88
2023-05-12T11:15:31.566Z,98884.71
2023-05-12T11:17:58.777Z,98882.16
2023-05-12T11:20:28.152Z,98879.17
2023-05-12T11:22:56.762Z,98879.38
2023-05-12T11:25:24.084Z,98879.73
2023-05-12T11:27:51.618Z,98883.42
2023-05-12T11:30:19.919Z,98881.73
2023-05-12T11:32:47.676Z,98877.50
2023-05-12T11:35:18.508Z,98879.66
2023-05-12T11:37:45.949Z,98873.87
2023-05-12T11:40:18.120Z,98874.59
2023-05-12T11:42:48.766Z,98873.94
2023-05-12T11:45:42.613Z,98875.60
2023-05-12T11:48:11.681Z,98872.77
2023-05-12T11:50:40.132Z,98876.17
2023-05-12T11:53:14.845Z,98874.59
2023-05-12T11:55:52.302Z,98870.63
2023-05-12T11:58:25.680Z,98877.32
2023-05-12T12:00:57.732Z,98870.55
2023-05-12T12:03:25.718Z,98872.95
2023-05-12T12:06:00.742Z,98880.84
2023-05-12T12:08:27.728Z,98878.59
2023-05-12T12:10:54.732Z,98879.77
2023-05-12T12:13:22.524Z,98879.96
2023-05-12T12:15:50.009Z,98882.19
2023-05-12T12:18:17.095Z,98881.65
2023-05-12T12:20:44.458Z,98883.24
2023-05-12T12:23:11.386Z,98886.76
2023-05-12T12:25:38.351Z,98880.13
2023-05-12T12:28:05.396Z,98880.09
2023-05-12T12:30:32.268Z,98883.22
2023-05-12T12:32:59.328Z,98880.88
2023-05-12T12:35:26.461Z,98880.05
2023-05-12T23:25:41.995Z,98889.39
2023-05-12T23:28:09.057Z,98890.94
2023-05-12T23:30:36.024Z,98888.54
2023-05-12T23:33:03.159Z,98890.11
2023-05-12T23:35:30.371Z,98893.26
2023-05-12T23:37:57.373Z,98891.47
2023-05-12T23:40:24.495Z,98890.63
2023-05-12T23:42:51.419Z,98895.48
2023-05-12T23:45:18.540Z,98892.64
2023-05-12T23:47:45.727Z,98894.34
2023-05-12T23:50:12.731Z,98897.44
2023-05-12T23:52:39.610Z,98896.23
2023-05-12T23:55:07.326Z,98900.35
2023-05-12T23:57:34.284Z,98896.98
